Bayshore Gardens, Florida
Current Conditions -  °F | °C
As of 1:53 PM on Wednesday 26 Nov 2014 (Local Time) from KSRQ Reporting Station
Clear Clear  
Wind Chill: 61°   Ceiling: Unl
Heat Index: 61°   Visibility: 10mi
Dew Point: 51°   Wind: 13mph
Humidity: 70%   Direction: 340°NNW
Pressure: 30.13"   Gusts: 21mph
Location:  27.4402°N, 82.5786°W
Report Text: KSRQ 261853Z 34011G18KT 10SM CLR 16/11 A3013 RMK AO2 SLP202 T01610106
Loading
Personal Weather Stations






























Interactive Weather Map New forecast layout! Learn more

10-Day Weather Forecast

Advertisements
Track Severe Weather on mobile